Time,TemperatureF,DewpointF,PressureIn,WindDirection,WindDirectionDegrees,WindSpeedMPH,WindSpeedGustMPH,Humidity,HourlyPrecipIn,Conditions,Clouds,dailyrainin,SolarRadiationWatts/m^2,SoftwareType,DateUTC
2013-10-25 10:23:00,42.0,32.0,-100.00,North,352,5.0,6.0,68,-99.99,,,-99.99,156.000000,,2013-10-25 16:23:00,
2013-10-25 10:43:00,44.0,32.0,-100.00,NNW,327,3.0,4.0,61,-99.99,,,-99.99,296.500000,,2013-10-25 16:43:00,
2013-10-25 11:22:00,50.0,33.0,-100.00,West,266,3.0,4.0,51,-99.99,,,-99.99,291.200012,,2013-10-25 17:22:00,
2013-10-25 11:52:00,54.0,33.0,-100.00,NNE,22,2.0,6.0,43,-99.99,,,-99.99,558.599976,,2013-10-25 17:52:00,
2013-10-25 12:02:00,54.0,33.0,-100.00,NNE,22,2.0,6.0,43,-99.99,,,-99.99,558.599976,,2013-10-25 18:02:00,
2013-10-25 12:21:00,58.0,32.0,-100.00,NNE,33,2.0,4.0,36,-99.99,,,-99.99,610.799988,,2013-10-25 18:21:00,
2013-10-25 12:42:00,60.0,30.0,-100.00,NW,321,1.0,5.0,31,-99.99,,,-99.99,631.299988,,2013-10-25 18:42:00,
2013-10-25 13:42:00,67.0,28.0,-100.00,WNW,298,4.0,5.0,23,-99.99,,,-99.99,667.099976,,2013-10-25 19:42:00,
2013-10-25 14:22:00,66.0,29.0,-100.00,NNE,32,4.0,9.0,24,-99.99,,,-99.99,660.200012,,2013-10-25 20:22:00,
2013-10-25 14:42:00,69.0,28.0,-100.00,WSW,256,2.0,10.0,20,-99.99,,,-99.99,648.200012,,2013-10-25 20:42:00,
2013-10-25 14:52:00,69.0,28.0,-100.00,NNW,337,9.0,11.0,21,-99.99,,,-99.99,640.900024,,2013-10-25 20:52:00,
2013-10-25 15:02:00,69.0,28.0,-100.00,NNW,337,9.0,11.0,21,-99.99,,,-99.99,640.900024,,2013-10-25 21:02:00,
2013-10-25 15:21:00,69.0,29.0,-100.00,NNW,337,4.0,8.0,22,-99.99,,,-99.99,601.200012,,2013-10-25 21:21:00,
2013-10-25 15:43:00,71.0,28.0,-100.00,WNW,282,7.0,10.0,20,-99.99,,,-99.99,565.299988,,2013-10-25 21:43:00,
2013-10-25 16:13:00,70.0,27.0,-100.00,NW,319,11.0,13.0,19,-99.99,,,-99.99,532.200012,,2013-10-25 22:13:00,
2013-10-25 17:12:00,70.0,26.0,-100.00,WNW,293,5.0,13.0,19,-99.99,,,-99.99,341.100006,,2013-10-25 23:12:00,
2013-10-25 17:42:00,69.0,27.0,-100.00,WNW,302,10.0,13.0,20,-99.99,,,-99.99,218.800003,,2013-10-25 23:42:00,
2013-10-25 18:11:00,67.0,29.0,-100.00,WNW,283,11.0,13.0,24,-99.99,,,-99.99,110.000000,,2013-10-26 00:11:00,
2013-10-25 18:21:00,65.0,29.0,-100.00,West,281,10.0,13.0,26,-99.99,,,-99.99,42.310001,,2013-10-26 00:21:00,
2013-10-25 19:12:00,60.0,28.0,-100.00,North,350,4.0,7.0,29,-99.99,,,-99.99,4.260000,,2013-10-26 01:12:00,
2013-10-25 19:21:00,59.0,28.0,-100.00,North,9,4.0,6.0,30,-99.99,,,-99.99,1.170000,,2013-10-26 01:21:00,
2013-10-25 19:42:00,60.0,28.0,-100.00,NNE,13,4.0,7.0,29,-99.99,,,-99.99,0.090000,,2013-10-26 01:42:00,
2013-10-25 20:22:00,54.0,29.0,-100.00,WNW,283,1.0,3.0,37,-99.99,,,-99.99,0.000000,,2013-10-26 02:22:00,